sensor_id;sensor_type;location;lat;lon;timestamp;P1;durP1;ratioP1;P2;durP2;ratioP2
30515;SDS011;17297;54.022;10.760;2022-10-16T00:01:21;1.98;;;1.88;;
30515;SDS011;17297;54.022;10.760;2022-10-16T00:03:49;2.92;;;1.95;;
30515;SDS011;17297;54.022;10.760;2022-10-16T00:06:15;2.83;;;2.15;;
30515;SDS011;17297;54.022;10.760;2022-10-16T00:08:42;2.10;;;1.77;;
30515;SDS011;17297;54.022;10.760;2022-10-16T00:11:09;2.72;;;2.15;;
30515;SDS011;17297;54.022;10.760;2022-10-16T00:13:37;3.60;;;2.33;;
30515;SDS011;17297;54.022;10.760;2022-10-16T00:16:05;1.75;;;1.65;;
30515;SDS011;17297;54.022;10.760;2022-10-16T00:18:32;2.33;;;1.73;;
30515;SDS011;17297;54.022;10.760;2022-10-16T00:21:01;2.53;;;2.10;;
30515;SDS011;17297;54.022;10.760;2022-10-16T00:23:31;3.47;;;1.80;;
30515;SDS011;17297;54.022;10.760;2022-10-16T00:25:58;2.00;;;1.67;;
30515;SDS011;17297;54.022;10.760;2022-10-16T00:28:24;2.33;;;1.80;;
30515;SDS011;17297;54.022;10.760;2022-10-16T00:30:50;3.25;;;1.75;;
30515;SDS011;17297;54.022;10.760;2022-10-16T00:33:15;1.90;;;1.80;;
30515;SDS011;17297;54.022;10.760;2022-10-16T00:35:41;2.85;;;2.17;;
30515;SDS011;17297;54.022;10.760;2022-10-16T00:38:06;2.13;;;1.73;;
30515;SDS011;17297;54.022;10.760;2022-10-16T00:40:33;2.05;;;1.70;;
30515;SDS011;17297;54.022;10.760;2022-10-16T00:42:58;2.25;;;2.03;;
30515;SDS011;17297;54.022;10.760;2022-10-16T00:45:24;2.30;;;1.80;;
30515;SDS011;17297;54.022;10.760;2022-10-16T00:47:49;3.42;;;2.25;;
30515;SDS011;17297;54.022;10.760;2022-10-16T00:50:27;3.60;;;2.13;;
30515;SDS011;17297;54.022;10.760;2022-10-16T00:52:55;3.05;;;2.20;;
30515;SDS011;17297;54.022;10.760;2022-10-16T00:55:22;2.50;;;2.30;;
30515;SDS011;17297;54.022;10.760;2022-10-16T00:57:49;2.33;;;2.13;;
30515;SDS011;17297;54.022;10.760;2022-10-16T01:00:17;2.25;;;1.88;;
30515;SDS011;17297;54.022;10.760;2022-10-16T01:02:51;3.22;;;2.78;;
30515;SDS011;17297;54.022;10.760;2022-10-16T01:07:52;1.65;;;1.55;;
30515;SDS011;17297;54.022;10.760;2022-10-16T01:10:40;2.70;;;1.95;;
30515;SDS011;17297;54.022;10.760;2022-10-16T01:13:21;2.20;;;1.80;;
30515;SDS011;17297;54.022;10.760;2022-10-16T01:15:54;1.92;;;1.48;;
30515;SDS011;17297;54.022;10.760;2022-10-16T01:18:34;3.33;;;1.80;;
30515;SDS011;17297;54.022;10.760;2022-10-16T01:21:05;2.67;;;1.83;;
30515;SDS011;17297;54.022;10.760;2022-10-16T01:26:33;3.33;;;1.90;;
30515;SDS011;17297;54.022;10.760;2022-10-16T01:31:44;1.63;;;1.40;;
30515;SDS011;17297;54.022;10.760;2022-10-16T01:34:15;2.50;;;2.30;;
30515;SDS011;17297;54.022;10.760;2022-10-16T01:36:48;2.08;;;1.60;;
30515;SDS011;17297;54.022;10.760;2022-10-16T01:39:19;1.53;;;1.43;;
30515;SDS011;17297;54.022;10.760;2022-10-16T01:41:48;3.03;;;1.90;;
30515;SDS011;17297;54.022;10.760;2022-10-16T01:44:20;1.70;;;1.60;;
30515;SDS011;17297;54.022;10.760;2022-10-16T01:46:50;1.85;;;1.75;;
30515;SDS011;17297;54.022;10.760;2022-10-16T01:49:18;1.77;;;1.58;;
30515;SDS011;17297;54.022;10.760;2022-10-16T01:51:47;2.20;;;1.90;;
30515;SDS011;17297;54.022;10.760;2022-10-16T01:54:17;2.00;;;1.77;;
30515;SDS011;17297;54.022;10.760;2022-10-16T01:56:45;4.50;;;1.90;;
30515;SDS011;17297;54.022;10.760;2022-10-16T01:59:13;1.75;;;1.55;;
30515;SDS011;17297;54.022;10.760;2022-10-16T02:01:44;2.70;;;1.83;;
30515;SDS011;17297;54.022;10.760;2022-10-16T02:04:19;2.38;;;1.88;;
30515;SDS011;17297;54.022;10.760;2022-10-16T02:06:46;1.80;;;1.70;;
30515;SDS011;17297;54.022;10.760;2022-10-16T02:09:11;2.80;;;2.10;;
30515;SDS011;17297;54.022;10.760;2022-10-16T02:11:36;1.95;;;1.67;;
30515;SDS011;17297;54.022;10.760;2022-10-16T02:14:03;4.13;;;2.97;;
30515;SDS011;17297;54.022;10.760;2022-10-16T02:16:34;2.85;;;2.30;;
30515;SDS011;17297;54.022;10.760;2022-10-16T02:19:03;2.78;;;1.73;;
30515;SDS011;17297;54.022;10.760;2022-10-16T02:21:30;1.60;;;1.35;;
30515;SDS011;17297;54.022;10.760;2022-10-16T02:27:10;1.83;;;1.63;;
30515;SDS011;17297;54.022;10.760;2022-10-16T02:29:41;4.00;;;1.65;;
30515;SDS011;17297;54.022;10.760;2022-10-16T02:32:13;1.70;;;1.60;;
30515;SDS011;17297;54.022;10.760;2022-10-16T02:34:42;2.55;;;2.03;;
30515;SDS011;17297;54.022;10.760;2022-10-16T02:37:10;3.00;;;1.77;;
30515;SDS011;17297;54.022;10.760;2022-10-16T02:39:35;2.40;;;1.85;;
30515;SDS011;17297;54.022;10.760;2022-10-16T02:42:03;2.78;;;2.15;;
30515;SDS011;17297;54.022;10.760;2022-10-16T02:44:28;2.08;;;1.85;;
30515;SDS011;17297;54.022;10.760;2022-10-16T02:46:54;2.33;;;1.70;;
30515;SDS011;17297;54.022;10.760;2022-10-16T02:49:20;4.38;;;2.80;;
30515;SDS011;17297;54.022;10.760;2022-10-16T02:51:45;2.95;;;1.55;;
30515;SDS011;17297;54.022;10.760;2022-10-16T02:54:11;2.05;;;1.30;;
30515;SDS011;17297;54.022;10.760;2022-10-16T02:56:36;2.00;;;1.90;;
30515;SDS011;17297;54.022;10.760;2022-10-16T02:59:01;2.55;;;1.70;;
30515;SDS011;17297;54.022;10.760;2022-10-16T03:01:27;1.83;;;1.63;;
30515;SDS011;17297;54.022;10.760;2022-10-16T03:03:52;2.63;;;1.73;;
30515;SDS011;17297;54.022;10.760;2022-10-16T03:06:17;1.92;;;1.80;;
30515;SDS011;17297;54.022;10.760;2022-10-16T03:08:43;1.60;;;1.50;;
30515;SDS011;17297;54.022;10.760;2022-10-16T03:11:08;2.17;;;1.83;;
30515;SDS011;17297;54.022;10.760;2022-10-16T03:13:33;1.48;;;1.38;;
30515;SDS011;17297;54.022;10.760;2022-10-16T03:15:59;1.90;;;1.42;;
30515;SDS011;17297;54.022;10.760;2022-10-16T03:18:24;1.30;;;1.20;;
30515;SDS011;17297;54.022;10.760;2022-10-16T03:20:50;1.77;;;1.30;;
30515;SDS011;17297;54.022;10.760;2022-10-16T03:23:15;1.73;;;1.63;;
30515;SDS011;17297;54.022;10.760;2022-10-16T03:25:40;1.77;;;1.67;;
30515;SDS011;17297;54.022;10.760;2022-10-16T03:28:06;1.77;;;1.45;;
30515;SDS011;17297;54.022;10.760;2022-10-16T03:30:31;2.30;;;1.50;;
30515;SDS011;17297;54.022;10.760;2022-10-16T03:32:57;2.15;;;1.42;;
30515;SDS011;17297;54.022;10.760;2022-10-16T03:35:22;1.77;;;1.60;;
30515;SDS011;17297;54.022;10.760;2022-10-16T03:37:49;1.65;;;1.35;;
30515;SDS011;17297;54.022;10.760;2022-10-16T03:40:15;2.17;;;1.80;;
30515;SDS011;17297;54.022;10.760;2022-10-16T03:42:42;1.60;;;1.50;;
30515;SDS011;17297;54.022;10.760;2022-10-16T03:45:08;1.90;;;1.52;;
30515;SDS011;17297;54.022;10.760;2022-10-16T03:47:34;2.25;;;1.27;;
30515;SDS011;17297;54.022;10.760;2022-10-16T03:50:00;1.42;;;1.33;;
30515;SDS011;17297;54.022;10.760;2022-10-16T03:52:25;1.27;;;1.17;;
30515;SDS011;17297;54.022;10.760;2022-10-16T03:54:51;2.20;;;1.25;;
30515;SDS011;17297;54.022;10.760;2022-10-16T03:57:16;2.25;;;1.58;;
30515;SDS011;17297;54.022;10.760;2022-10-16T03:59:42;3.28;;;1.50;;
30515;SDS011;17297;54.022;10.760;2022-10-16T04:02:07;1.50;;;1.40;;
30515;SDS011;17297;54.022;10.760;2022-10-16T04:04:32;1.65;;;1.45;;
30515;SDS011;17297;54.022;10.760;2022-10-16T04:06:58;2.03;;;1.10;;
30515;SDS011;17297;54.022;10.760;2022-10-16T04:09:23;1.65;;;1.55;;
30515;SDS011;17297;54.022;10.760;2022-10-16T04:11:48;2.30;;;1.30;;
30515;SDS011;17297;54.022;10.760;2022-10-16T04:14:14;1.25;;;1.15;;
30515;SDS011;17297;54.022;10.760;2022-10-16T04:16:39;2.33;;;1.35;;
30515;SDS011;17297;54.022;10.760;2022-10-16T04:19:05;3.25;;;1.65;;
30515;SDS011;17297;54.022;10.760;2022-10-16T04:21:30;1.85;;;1.42;;
30515;SDS011;17297;54.022;10.760;2022-10-16T04:23:55;2.85;;;1.40;;
30515;SDS011;17297;54.022;10.760;2022-10-16T04:26:20;1.70;;;1.10;;
30515;SDS011;17297;54.022;10.760;2022-10-16T04:28:46;1.10;;;1.00;;
30515;SDS011;17297;54.022;10.760;2022-10-16T04:31:11;1.48;;;1.38;;
30515;SDS011;17297;54.022;10.760;2022-10-16T04:33:36;1.75;;;1.10;;
30515;SDS011;17297;54.022;10.760;2022-10-16T04:36:02;2.40;;;1.30;;
30515;SDS011;17297;54.022;10.760;2022-10-16T04:38:28;1.13;;;0.88;;
30515;SDS011;17297;54.022;10.760;2022-10-16T04:40:54;1.45;;;1.20;;
30515;SDS011;17297;54.022;10.760;2022-10-16T04:43:19;0.85;;;0.80;;
30515;SDS011;17297;54.022;10.760;2022-10-16T04:45:44;1.38;;;1.02;;
30515;SDS011;17297;54.022;10.760;2022-10-16T04:48:10;1.50;;;1.20;;
30515;SDS011;17297;54.022;10.760;2022-10-16T04:50:35;1.35;;;1.02;;
30515;SDS011;17297;54.022;10.760;2022-10-16T04:53:04;0.90;;;0.90;;
30515;SDS011;17297;54.022;10.760;2022-10-16T04:55:30;0.95;;;0.90;;
30515;SDS011;17297;54.022;10.760;2022-10-16T04:57:55;1.33;;;1.13;;
30515;SDS011;17297;54.022;10.760;2022-10-16T05:00:21;1.08;;;0.98;;
30515;SDS011;17297;54.022;10.760;2022-10-16T05:02:50;1.90;;;1.05;;
30515;SDS011;17297;54.022;10.760;2022-10-16T05:05:15;1.23;;;0.88;;
30515;SDS011;17297;54.022;10.760;2022-10-16T05:07:41;1.33;;;1.23;;
30515;SDS011;17297;54.022;10.760;2022-10-16T05:10:06;1.58;;;1.00;;
30515;SDS011;17297;54.022;10.760;2022-10-16T05:12:32;1.25;;;1.15;;
30515;SDS011;17297;54.022;10.760;2022-10-16T05:14:59;1.33;;;1.02;;
30515;SDS011;17297;54.022;10.760;2022-10-16T05:17:24;0.82;;;0.82;;
30515;SDS011;17297;54.022;10.760;2022-10-16T05:19:50;2.10;;;1.10;;
30515;SDS011;17297;54.022;10.760;2022-10-16T05:22:16;1.60;;;1.00;;
30515;SDS011;17297;54.022;10.760;2022-10-16T05:24:41;2.15;;;1.10;;
30515;SDS011;17297;54.022;10.760;2022-10-16T05:27:06;1.92;;;1.10;;
30515;SDS011;17297;54.022;10.760;2022-10-16T05:29:32;1.42;;;1.33;;
30515;SDS011;17297;54.022;10.760;2022-10-16T05:31:57;0.90;;;0.90;;
30515;SDS011;17297;54.022;10.760;2022-10-16T05:34:22;1.92;;;1.20;;
30515;SDS011;17297;54.022;10.760;2022-10-16T05:36:48;1.50;;;1.40;;
30515;SDS011;17297;54.022;10.760;2022-10-16T05:39:14;1.63;;;1.05;;
30515;SDS011;17297;54.022;10.760;2022-10-16T05:41:40;3.47;;;1.20;;
30515;SDS011;17297;54.022;10.760;2022-10-16T05:44:05;1.58;;;1.00;;
30515;SDS011;17297;54.022;10.760;2022-10-16T05:46:31;4.00;;;1.10;;
30515;SDS011;17297;54.022;10.760;2022-10-16T05:48:57;1.13;;;1.02;;
30515;SDS011;17297;54.022;10.760;2022-10-16T05:51:22;1.00;;;0.90;;
30515;SDS011;17297;54.022;10.760;2022-10-16T05:53:48;2.47;;;1.30;;
30515;SDS011;17297;54.022;10.760;2022-10-16T05:56:13;2.55;;;1.40;;
30515;SDS011;17297;54.022;10.760;2022-10-16T05:58:39;1.95;;;1.00;;
30515;SDS011;17297;54.022;10.760;2022-10-16T06:01:13;1.10;;;1.00;;
30515;SDS011;17297;54.022;10.760;2022-10-16T06:03:40;1.05;;;0.95;;
30515;SDS011;17297;54.022;10.760;2022-10-16T06:06:10;1.33;;;1.00;;
30515;SDS011;17297;54.022;10.760;2022-10-16T06:08:37;2.50;;;1.00;;
30515;SDS011;17297;54.022;10.760;2022-10-16T06:11:04;1.75;;;1.00;;
30515;SDS011;17297;54.022;10.760;2022-10-16T06:13:31;1.30;;;1.20;;
30515;SDS011;17297;54.022;10.760;2022-10-16T06:15:57;1.60;;;1.50;;
30515;SDS011;17297;54.022;10.760;2022-10-16T06:18:24;1.92;;;1.00;;
30515;SDS011;17297;54.022;10.760;2022-10-16T06:20:49;2.03;;;1.02;;
30515;SDS011;17297;54.022;10.760;2022-10-16T06:23:15;2.17;;;1.52;;
30515;SDS011;17297;54.022;10.760;2022-10-16T06:25:40;2.15;;;1.13;;
30515;SDS011;17297;54.022;10.760;2022-10-16T06:28:05;2.08;;;1.00;;
30515;SDS011;17297;54.022;10.760;2022-10-16T06:30:31;2.83;;;1.00;;
30515;SDS011;17297;54.022;10.760;2022-10-16T06:32:56;0.95;;;0.90;;
30515;SDS011;17297;54.022;10.760;2022-10-16T06:35:22;1.15;;;1.05;;
30515;SDS011;17297;54.022;10.760;2022-10-16T06:37:47;1.08;;;0.98;;
30515;SDS011;17297;54.022;10.760;2022-10-16T06:40:12;1.98;;;1.10;;
30515;SDS011;17297;54.022;10.760;2022-10-16T06:42:39;1.80;;;1.20;;
30515;SDS011;17297;54.022;10.760;2022-10-16T06:45:05;1.35;;;1.02;;
30515;SDS011;17297;54.022;10.760;2022-10-16T06:47:30;1.08;;;0.98;;
30515;SDS011;17297;54.022;10.760;2022-10-16T06:49:56;1.70;;;1.00;;
30515;SDS011;17297;54.022;10.760;2022-10-16T06:52:21;1.23;;;0.93;;
30515;SDS011;17297;54.022;10.760;2022-10-16T06:54:47;0.93;;;0.85;;
30515;SDS011;17297;54.022;10.760;2022-10-16T06:57:12;1.45;;;1.00;;
30515;SDS011;17297;54.022;10.760;2022-10-16T06:59:37;0.95;;;0.90;;
30515;SDS011;17297;54.022;10.760;2022-10-16T07:02:03;2.05;;;1.10;;
30515;SDS011;17297;54.022;10.760;2022-10-16T07:04:28;1.20;;;1.10;;
30515;SDS011;17297;54.022;10.760;2022-10-16T07:06:53;1.48;;;1.08;;
30515;SDS011;17297;54.022;10.760;2022-10-16T07:09:19;2.45;;;1.23;;
30515;SDS011;17297;54.022;10.760;2022-10-16T07:11:44;1.10;;;1.00;;
30515;SDS011;17297;54.022;10.760;2022-10-16T07:14:15;0.85;;;0.80;;
30515;SDS011;17297;54.022;10.760;2022-10-16T07:16:42;1.15;;;1.02;;
30515;SDS011;17297;54.022;10.760;2022-10-16T07:19:08;1.20;;;1.00;;
30515;SDS011;17297;54.022;10.760;2022-10-16T07:21:34;1.15;;;1.00;;
30515;SDS011;17297;54.022;10.760;2022-10-16T07:24:00;1.52;;;1.10;;
30515;SDS011;17297;54.022;10.760;2022-10-16T07:26:27;1.52;;;1.25;;
30515;SDS011;17297;54.022;10.760;2022-10-16T07:28:55;0.85;;;0.85;;
30515;SDS011;17297;54.022;10.760;2022-10-16T07:31:20;1.20;;;0.98;;
30515;SDS011;17297;54.022;10.760;2022-10-16T07:33:47;1.77;;;0.80;;
30515;SDS011;17297;54.022;10.760;2022-10-16T07:36:14;2.17;;;1.40;;
30515;SDS011;17297;54.022;10.760;2022-10-16T07:38:40;2.28;;;1.10;;
30515;SDS011;17297;54.022;10.760;2022-10-16T07:41:09;2.05;;;1.13;;
30515;SDS011;17297;54.022;10.760;2022-10-16T07:43:39;1.27;;;1.17;;
30515;SDS011;17297;54.022;10.760;2022-10-16T07:46:04;1.70;;;0.95;;
30515;SDS011;17297;54.022;10.760;2022-10-16T07:48:31;1.00;;;0.90;;
30515;SDS011;17297;54.022;10.760;2022-10-16T07:50:59;1.88;;;1.08;;
30515;SDS011;17297;54.022;10.760;2022-10-16T07:53:25;2.03;;;1.00;;
30515;SDS011;17297;54.022;10.760;2022-10-16T07:55:52;0.90;;;0.90;;
30515;SDS011;17297;54.022;10.760;2022-10-16T07:58:17;1.85;;;0.85;;
30515;SDS011;17297;54.022;10.760;2022-10-16T08:00:42;1.20;;;1.02;;
30515;SDS011;17297;54.022;10.760;2022-10-16T08:03:08;0.90;;;0.85;;
30515;SDS011;17297;54.022;10.760;2022-10-16T08:05:33;1.40;;;1.13;;
30515;SDS011;17297;54.022;10.760;2022-10-16T08:08:00;1.20;;;1.00;;
30515;SDS011;17297;54.022;10.760;2022-10-16T08:10:27;0.70;;;0.70;;
30515;SDS011;17297;54.022;10.760;2022-10-16T08:12:53;1.10;;;0.90;;
30515;SDS011;17297;54.022;10.760;2022-10-16T08:15:19;1.90;;;1.33;;
30515;SDS011;17297;54.022;10.760;2022-10-16T08:17:53;1.27;;;1.00;;
30515;SDS011;17297;54.022;10.760;2022-10-16T08:20:22;1.80;;;0.80;;
30515;SDS011;17297;54.022;10.760;2022-10-16T08:22:48;1.27;;;1.10;;
30515;SDS011;17297;54.022;10.760;2022-10-16T08:25:13;0.80;;;0.70;;
30515;SDS011;17297;54.022;10.760;2022-10-16T08:27:39;1.35;;;0.90;;
30515;SDS011;17297;54.022;10.760;2022-10-16T08:30:04;2.10;;;1.10;;
30515;SDS011;17297;54.022;10.760;2022-10-16T08:32:30;1.48;;;1.02;;
30515;SDS011;17297;54.022;10.760;2022-10-16T08:34:55;1.40;;;1.00;;
30515;SDS011;17297;54.022;10.760;2022-10-16T08:37:20;1.05;;;1.00;;
30515;SDS011;17297;54.022;10.760;2022-10-16T08:39:46;1.55;;;1.20;;
30515;SDS011;17297;54.022;10.760;2022-10-16T08:50:36;2.38;;;1.17;;
30515;SDS011;17297;54.022;10.760;2022-10-16T08:53:04;1.45;;;1.33;;
30515;SDS011;17297;54.022;10.760;2022-10-16T08:55:47;1.88;;;0.73;;
30515;SDS011;17297;54.022;10.760;2022-10-16T08:58:21;3.75;;;0.90;;
30515;SDS011;17297;54.022;10.760;2022-10-16T09:00:48;1.33;;;1.17;;
30515;SDS011;17297;54.022;10.760;2022-10-16T09:03:23;1.50;;;1.10;;
30515;SDS011;17297;54.022;10.760;2022-10-16T09:12:04;1.40;;;1.30;;
30515;SDS011;17297;54.022;10.760;2022-10-16T09:20:27;1.55;;;0.95;;
30515;SDS011;17297;54.022;10.760;2022-10-16T09:25:30;1.08;;;1.00;;
30515;SDS011;17297;54.022;10.760;2022-10-16T09:27:57;1.25;;;1.15;;
30515;SDS011;17297;54.022;10.760;2022-10-16T09:30:23;1.05;;;0.95;;
30515;SDS011;17297;54.022;10.760;2022-10-16T09:32:54;1.20;;;1.10;;
30515;SDS011;17297;54.022;10.760;2022-10-16T09:35:23;1.70;;;1.05;;
30515;SDS011;17297;54.022;10.760;2022-10-16T09:38:22;1.35;;;1.10;;
30515;SDS011;17297;54.022;10.760;2022-10-16T09:40:53;1.20;;;1.10;;
30515;SDS011;17297;54.022;10.760;2022-10-16T09:46:03;2.55;;;1.42;;
30515;SDS011;17297;54.022;10.760;2022-10-16T09:48:37;1.85;;;1.05;;
30515;SDS011;17297;54.022;10.760;2022-10-16T09:51:16;1.33;;;0.90;;
30515;SDS011;17297;54.022;10.760;2022-10-16T09:53:46;2.00;;;1.70;;
30515;SDS011;17297;54.022;10.760;2022-10-16T09:56:20;1.98;;;1.30;;
30515;SDS011;17297;54.022;10.760;2022-10-16T09:58:51;1.75;;;1.33;;
30515;SDS011;17297;54.022;10.760;2022-10-16T10:01:17;1.38;;;1.15;;
30515;SDS011;17297;54.022;10.760;2022-10-16T10:03:44;2.05;;;1.33;;
30515;SDS011;17297;54.022;10.760;2022-10-16T10:06:16;1.05;;;1.00;;
30515;SDS011;17297;54.022;10.760;2022-10-16T10:08:54;1.27;;;0.98;;
30515;SDS011;17297;54.022;10.760;2022-10-16T10:19:29;1.05;;;1.00;;
30515;SDS011;17297;54.022;10.760;2022-10-16T10:21:54;1.70;;;0.90;;
30515;SDS011;17297;54.022;10.760;2022-10-16T10:24:20;0.77;;;0.70;;
30515;SDS011;17297;54.022;10.760;2022-10-16T10:27:02;0.88;;;0.77;;
30515;SDS011;17297;54.022;10.760;2022-10-16T10:29:47;1.10;;;0.90;;
30515;SDS011;17297;54.022;10.760;2022-10-16T10:32:30;1.73;;;0.93;;
30515;SDS011;17297;54.022;10.760;2022-10-16T10:35:11;1.05;;;1.00;;
30515;SDS011;17297;54.022;10.760;2022-10-16T10:37:51;2.17;;;1.73;;
30515;SDS011;17297;54.022;10.760;2022-10-16T10:45:46;1.67;;;0.70;;
30515;SDS011;17297;54.022;10.760;2022-10-16T10:50:49;0.60;;;0.60;;
30515;SDS011;17297;54.022;10.760;2022-10-16T11:02:35;2.50;;;0.73;;
30515;SDS011;17297;54.022;10.760;2022-10-16T11:05:19;1.08;;;0.98;;
30515;SDS011;17297;54.022;10.760;2022-10-16T11:07:55;0.85;;;0.80;;
30515;SDS011;17297;54.022;10.760;2022-10-16T11:10:42;1.77;;;0.80;;
30515;SDS011;17297;54.022;10.760;2022-10-16T11:15:51;1.75;;;0.80;;
30515;SDS011;17297;54.022;10.760;2022-10-16T11:18:30;0.73;;;0.70;;
30515;SDS011;17297;54.022;10.760;2022-10-16T11:21:05;2.22;;;1.02;;
30515;SDS011;17297;54.022;10.760;2022-10-16T11:26:12;3.40;;;0.73;;
30515;SDS011;17297;54.022;10.760;2022-10-16T11:28:51;1.00;;;0.70;;
30515;SDS011;17297;54.022;10.760;2022-10-16T11:37:02;2.72;;;0.70;;
30515;SDS011;17297;54.022;10.760;2022-10-16T11:39:44;2.80;;;0.80;;
30515;SDS011;17297;54.022;10.760;2022-10-16T11:42:21;3.70;;;1.08;;
30515;SDS011;17297;54.022;10.760;2022-10-16T11:44:53;0.95;;;0.52;;
30515;SDS011;17297;54.022;10.760;2022-10-16T11:50:00;1.55;;;0.70;;
30515;SDS011;17297;54.022;10.760;2022-10-16T11:52:55;1.55;;;0.88;;
30515;SDS011;17297;54.022;10.760;2022-10-16T11:55:36;1.17;;;0.60;;
30515;SDS011;17297;54.022;10.760;2022-10-16T11:58:08;0.98;;;0.65;;
30515;SDS011;17297;54.022;10.760;2022-10-16T12:03:41;3.28;;;0.77;;
30515;SDS011;17297;54.022;10.760;2022-10-16T12:08:55;1.23;;;0.60;;
30515;SDS011;17297;54.022;10.760;2022-10-16T12:13:51;1.45;;;0.57;;
30515;SDS011;17297;54.022;10.760;2022-10-16T12:16:28;1.50;;;0.80;;
30515;SDS011;17297;54.022;10.760;2022-10-16T12:21:39;0.65;;;0.63;;
30515;SDS011;17297;54.022;10.760;2022-10-16T12:24:05;1.27;;;0.68;;
30515;SDS011;17297;54.022;10.760;2022-10-16T12:26:32;0.73;;;0.70;;
30515;SDS011;17297;54.022;10.760;2022-10-16T12:32:02;1.02;;;0.98;;
30515;SDS011;17297;54.022;10.760;2022-10-16T12:34:32;1.00;;;0.75;;
30515;SDS011;17297;54.022;10.760;2022-10-16T12:37:21;1.00;;;0.90;;
30515;SDS011;17297;54.022;10.760;2022-10-16T12:39:58;0.60;;;0.60;;
30515;SDS011;17297;54.022;10.760;2022-10-16T12:42:36;2.25;;;0.60;;
30515;SDS011;17297;54.022;10.760;2022-10-16T12:45:01;1.10;;;0.80;;
30515;SDS011;17297;54.022;10.760;2022-10-16T12:47:49;4.55;;;0.80;;
30515;SDS011;17297;54.022;10.760;2022-10-16T12:50:24;3.28;;;0.98;;
30515;SDS011;17297;54.022;10.760;2022-10-16T12:55:18;1.20;;;0.82;;
30515;SDS011;17297;54.022;10.760;2022-10-16T12:57:56;2.22;;;0.90;;
30515;SDS011;17297;54.022;10.760;2022-10-16T13:03:24;1.80;;;1.33;;
30515;SDS011;17297;54.022;10.760;2022-10-16T13:06:00;2.80;;;0.70;;
30515;SDS011;17297;54.022;10.760;2022-10-16T13:20:43;2.78;;;2.00;;
30515;SDS011;17297;54.022;10.760;2022-10-16T13:23:35;0.70;;;0.70;;
30515;SDS011;17297;54.022;10.760;2022-10-16T13:26:35;1.58;;;0.82;;
30515;SDS011;17297;54.022;10.760;2022-10-16T13:29:10;1.25;;;0.93;;
30515;SDS011;17297;54.022;10.760;2022-10-16T13:31:37;1.27;;;0.80;;
30515;SDS011;17297;54.022;10.760;2022-10-16T13:34:03;1.88;;;0.90;;
30515;SDS011;17297;54.022;10.760;2022-10-16T13:36:34;1.17;;;0.88;;
30515;SDS011;17297;54.022;10.760;2022-10-16T13:39:25;1.98;;;0.82;;
30515;SDS011;17297;54.022;10.760;2022-10-16T13:42:10;1.80;;;0.70;;
30515;SDS011;17297;54.022;10.760;2022-10-16T13:44:45;0.93;;;0.70;;
30515;SDS011;17297;54.022;10.760;2022-10-16T13:47:15;1.73;;;0.60;;
30515;SDS011;17297;54.022;10.760;2022-10-16T13:49:41;1.48;;;1.02;;
30515;SDS011;17297;54.022;10.760;2022-10-16T13:52:15;1.80;;;0.70;;
30515;SDS011;17297;54.022;10.760;2022-10-16T13:54:42;3.95;;;0.88;;
30515;SDS011;17297;54.022;10.760;2022-10-16T13:57:08;0.73;;;0.45;;
30515;SDS011;17297;54.022;10.760;2022-10-16T13:59:34;2.25;;;0.82;;
30515;SDS011;17297;54.022;10.760;2022-10-16T14:02:04;0.95;;;0.95;;
30515;SDS011;17297;54.022;10.760;2022-10-16T14:04:39;1.55;;;0.90;;
30515;SDS011;17297;54.022;10.760;2022-10-16T14:07:05;1.30;;;0.60;;
30515;SDS011;17297;54.022;10.760;2022-10-16T14:09:30;0.98;;;0.60;;
30515;SDS011;17297;54.022;10.760;2022-10-16T14:12:03;1.73;;;0.90;;
30515;SDS011;17297;54.022;10.760;2022-10-16T14:14:45;1.27;;;0.70;;
30515;SDS011;17297;54.022;10.760;2022-10-16T14:17:13;1.20;;;0.95;;
30515;SDS011;17297;54.022;10.760;2022-10-16T14:19:57;2.92;;;0.88;;
30515;SDS011;17297;54.022;10.760;2022-10-16T14:22:37;1.02;;;0.63;;
30515;SDS011;17297;54.022;10.760;2022-10-16T14:28:04;1.17;;;0.73;;
30515;SDS011;17297;54.022;10.760;2022-10-16T14:30:54;1.30;;;0.80;;
30515;SDS011;17297;54.022;10.760;2022-10-16T14:33:25;1.25;;;0.80;;
30515;SDS011;17297;54.022;10.760;2022-10-16T14:35:59;1.23;;;0.98;;
30515;SDS011;17297;54.022;10.760;2022-10-16T14:39:06;0.93;;;0.82;;
30515;SDS011;17297;54.022;10.760;2022-10-16T14:41:45;1.55;;;0.90;;
30515;SDS011;17297;54.022;10.760;2022-10-16T14:44:13;1.65;;;0.65;;
30515;SDS011;17297;54.022;10.760;2022-10-16T14:46:40;1.52;;;0.70;;
30515;SDS011;17297;54.022;10.760;2022-10-16T14:51:35;1.60;;;0.85;;
30515;SDS011;17297;54.022;10.760;2022-10-16T14:54:02;0.50;;;0.50;;
30515;SDS011;17297;54.022;10.760;2022-10-16T14:56:31;2.17;;;1.05;;
30515;SDS011;17297;54.022;10.760;2022-10-16T14:59:07;1.52;;;0.82;;
30515;SDS011;17297;54.022;10.760;2022-10-16T15:01:40;1.10;;;0.73;;
30515;SDS011;17297;54.022;10.760;2022-10-16T15:04:09;1.55;;;0.82;;
30515;SDS011;17297;54.022;10.760;2022-10-16T15:06:37;1.75;;;0.63;;
30515;SDS011;17297;54.022;10.760;2022-10-16T15:09:02;1.00;;;0.95;;
30515;SDS011;17297;54.022;10.760;2022-10-16T15:11:28;1.02;;;0.90;;
30515;SDS011;17297;54.022;10.760;2022-10-16T15:13:54;0.90;;;0.68;;
30515;SDS011;17297;54.022;10.760;2022-10-16T15:16:19;2.90;;;0.95;;
30515;SDS011;17297;54.022;10.760;2022-10-16T15:18:44;0.93;;;0.65;;
30515;SDS011;17297;54.022;10.760;2022-10-16T15:23:51;1.13;;;0.63;;
30515;SDS011;17297;54.022;10.760;2022-10-16T15:26:17;1.80;;;0.77;;
30515;SDS011;17297;54.022;10.760;2022-10-16T15:28:42;9.93;;;1.33;;
30515;SDS011;17297;54.022;10.760;2022-10-16T15:31:07;0.70;;;0.70;;
30515;SDS011;17297;54.022;10.760;2022-10-16T15:33:33;0.57;;;0.57;;
30515;SDS011;17297;54.022;10.760;2022-10-16T15:36:00;2.47;;;0.88;;
30515;SDS011;17297;54.022;10.760;2022-10-16T15:38:27;2.58;;;1.15;;
30515;SDS011;17297;54.022;10.760;2022-10-16T15:40:53;2.10;;;0.80;;
30515;SDS011;17297;54.022;10.760;2022-10-16T15:43:19;1.17;;;0.80;;
30515;SDS011;17297;54.022;10.760;2022-10-16T15:45:47;1.35;;;0.77;;
30515;SDS011;17297;54.022;10.760;2022-10-16T15:48:31;1.42;;;0.88;;
30515;SDS011;17297;54.022;10.760;2022-10-16T15:50:57;2.60;;;0.73;;
30515;SDS011;17297;54.022;10.760;2022-10-16T15:53:22;0.70;;;0.70;;
30515;SDS011;17297;54.022;10.760;2022-10-16T15:55:48;1.95;;;0.98;;
30515;SDS011;17297;54.022;10.760;2022-10-16T15:58:14;1.20;;;0.70;;
30515;SDS011;17297;54.022;10.760;2022-10-16T16:00:39;2.63;;;0.90;;
30515;SDS011;17297;54.022;10.760;2022-10-16T16:03:04;1.60;;;1.13;;
30515;SDS011;17297;54.022;10.760;2022-10-16T16:05:30;1.30;;;0.90;;
30515;SDS011;17297;54.022;10.760;2022-10-16T16:07:56;3.70;;;1.15;;
30515;SDS011;17297;54.022;10.760;2022-10-16T16:10:21;1.77;;;0.80;;
30515;SDS011;17297;54.022;10.760;2022-10-16T16:12:47;3.10;;;0.80;;
30515;SDS011;17297;54.022;10.760;2022-10-16T16:15:18;1.83;;;0.63;;
30515;SDS011;17297;54.022;10.760;2022-10-16T16:17:45;2.05;;;1.17;;
30515;SDS011;17297;54.022;10.760;2022-10-16T16:20:11;2.88;;;1.13;;
30515;SDS011;17297;54.022;10.760;2022-10-16T16:22:37;1.83;;;0.82;;
30515;SDS011;17297;54.022;10.760;2022-10-16T16:25:02;1.30;;;0.90;;
30515;SDS011;17297;54.022;10.760;2022-10-16T16:27:27;0.80;;;0.80;;
30515;SDS011;17297;54.022;10.760;2022-10-16T16:29:55;0.75;;;0.60;;
30515;SDS011;17297;54.022;10.760;2022-10-16T16:32:21;0.90;;;0.60;;
30515;SDS011;17297;54.022;10.760;2022-10-16T16:34:47;1.33;;;0.95;;
30515;SDS011;17297;54.022;10.760;2022-10-16T16:37:12;0.60;;;0.60;;
30515;SDS011;17297;54.022;10.760;2022-10-16T16:39:38;2.35;;;0.90;;